Time;durP1;ratioP1;P1;durP2;ratioP2;P2;SDS_P1;SDS_P2;PMS_P1;PMS_P2;Temp;Humidity;BMP_temperature;BMP_pressure;BME280_temperature;BME280_humidity;BME280_pressure;Samples;Min_cycle;Max_cycle;Signal;HPM_P1;HPM_P2
2021/08/02 00:07:56;;;;;;;6.3;3.5;;;;;;;15.28;100;97765.17;;;;
2021/08/02 00:17:55;;;;;;;6.4;3.4;;;;;;;15.22;100;97775.55;;;;
2021/08/02 00:27:54;;;;;;;4.8;3.9;;;;;;;15.13;100;97789.31;;;;
2021/08/02 00:37:54;;;;;;;8.7;4.8;;;;;;;15.04;100;97794.17;;;;
2021/08/02 00:47:53;;;;;;;7.9;4.1;;;;;;;14.86;100;97803.06;;;;
2021/08/02 00:57:53;;;;;;;5;3.4;;;;;;;14.63;100;97797.53;;;;
2021/08/02 01:07:52;;;;;;;8;5.1;;;;;;;14.46;100;97801.41;;;;
2021/08/02 01:17:52;;;;;;;8.3;5.1;;;;;;;14.4;100;97810.16;;;;
2021/08/02 01:27:51;;;;;;;7;5.1;;;;;;;14.34;100;97820.46;;;;
2021/08/02 01:37:50;;;;;;;6.8;4.6;;;;;;;14.24;100;97828.3;;;;
2021/08/02 01:47:50;;;;;;;7.1;4.3;;;;;;;14.23;100;97827.5;;;;
2021/08/02 01:57:49;;;;;;;8.1;4.7;;;;;;;14.25;100;97833.38;;;;
2021/08/02 02:07:49;;;;;;;7.4;6.2;;;;;;;14.35;100;97851.86;;;;
2021/08/02 02:17:48;;;;;;;9.5;7.2;;;;;;;14.46;100;97868.39;;;;
2021/08/02 02:27:48;;;;;;;9.7;7.2;;;;;;;14.45;100;97864.1;;;;
2021/08/02 02:37:47;;;;;;;10.7;8.6;;;;;;;14.56;100;97870.58;;;;
2021/08/02 02:47:47;;;;;;;10.7;8.5;;;;;;;14.51;100;97893.31;;;;
2021/08/02 02:57:46;;;;;;;12.7;11.4;;;;;;;14.62;100;97912.56;;;;
2021/08/02 03:07:46;;;;;;;11.4;9.5;;;;;;;14.71;100;97932.17;;;;
2021/08/02 03:17:45;;;;;;;11.4;8.2;;;;;;;14.85;100;97932.52;;;;
2021/08/02 03:27:45;;;;;;;11.8;9.4;;;;;;;14.75;100;97941.16;;;;
2021/08/02 03:37:44;;;;;;;12.2;9.8;;;;;;;14.69;100;97939.86;;;;
2021/08/02 03:47:44;;;;;;;12;9.1;;;;;;;14.78;100;97953.27;;;;
2021/08/02 03:57:43;;;;;;;11.3;7.9;;;;;;;14.8;100;97965.33;;;;
2021/08/02 04:07:43;;;;;;;13.6;6.8;;;;;;;14.8;100;97975.39;;;;
2021/08/02 04:17:43;;;;;;;9.5;6.9;;;;;;;14.89;100;97978.73;;;;
2021/08/02 04:27:42;;;;;;;9.7;7.2;;;;;;;15.06;100;98000.09;;;;
2021/08/02 04:37:42;;;;;;;8.9;6.2;;;;;;;15.23;100;98007.08;;;;
2021/08/02 04:47:41;;;;;;;9.4;5.3;;;;;;;15.05;100;98022.94;;;;
2021/08/02 04:57:41;;;;;;;7.2;3.6;;;;;;;15.23;100;98028.8;;;;
2021/08/02 05:07:41;;;;;;;7.9;4.6;;;;;;;15.34;100;98027.14;;;;
2021/08/02 05:17:40;;;;;;;4.7;2.9;;;;;;;15.35;100;98050.41;;;;
2021/08/02 05:27:40;;;;;;;8.1;3;;;;;;;15.39;100;98051.29;;;;
2021/08/02 05:37:40;;;;;;;3.7;2;;;;;;;15.4;100;98066.45;;;;
2021/08/02 05:47:39;;;;;;;4.6;2.4;;;;;;;15.52;100;98069.88;;;;
2021/08/02 05:57:39;;;;;;;5.6;2.1;;;;;;;15.47;100;98082.92;;;;
2021/08/02 06:07:42;;;;;;;3.5;1.8;;;;;;;15.44;100;98091.77;;;;
2021/08/02 06:17:38;;;;;;;3.4;1.9;;;;;;;15.66;100;98102.02;;;;
2021/08/02 06:27:38;;;;;;;3.3;1.8;;;;;;;15.66;100;98112.09;;;;
2021/08/02 06:37:38;;;;;;;2.9;1.6;;;;;;;15.75;100;98127.09;;;;
2021/08/02 06:47:37;;;;;;;3;1.5;;;;;;;16.21;100;98136.28;;;;
2021/08/02 06:57:37;;;;;;;2.8;1.5;;;;;;;16.4;100;98141.77;;;;
2021/08/02 07:07:37;;;;;;;3.5;1.5;;;;;;;16.53;100;98145.14;;;;
2021/08/02 07:17:37;;;;;;;4.2;1.8;;;;;;;16.91;100;98145.17;;;;
2021/08/02 07:27:38;;;;;;;3.2;1.6;;;;;;;16.96;100;98146.83;;;;
2021/08/02 07:37:39;;;;;;;3.5;2.1;;;;;;;16.92;100;98160.36;;;;
2021/08/02 07:47:37;;;;;;;4.1;1.6;;;;;;;17.08;100;98177.39;;;;
2021/08/02 07:57:38;;;;;;;4.5;1.8;;;;;;;17.08;100;98173.88;;;;
2021/08/02 08:07:43;;;;;;;2.8;1.4;;;;;;;18.02;100;98195.03;;;;
2021/08/02 08:17:37;;;;;;;4.3;2.4;;;;;;;18.53;100;98206.38;;;;
2021/08/02 08:27:37;;;;;;;5.7;2.4;;;;;;;19.46;100;98198.95;;;;
2021/08/02 08:37:37;;;;;;;4.6;2.7;;;;;;;20.27;100;98223.51;;;;
2021/08/02 08:47:37;;;;;;;4.7;2.4;;;;;;;20.45;100;98223.63;;;;
2021/08/02 08:57:37;;;;;;;5.3;2.2;;;;;;;20.61;100;98234.31;;;;
2021/08/02 09:07:38;;;;;;;4.9;2.9;;;;;;;20.51;100;98231.1;;;;
2021/08/02 09:17:37;;;;;;;4.3;2.7;;;;;;;21.01;100;98218.48;;;;
2021/08/02 09:27:38;;;;;;;5.9;2.7;;;;;;;21;100;98205.94;;;;
2021/08/02 09:37:38;;;;;;;5;3;;;;;;;20.46;100;98203.31;;;;
2021/08/02 09:47:38;;;;;;;6.8;2.9;;;;;;;20.14;100;98208.53;;;;
2021/08/02 09:57:39;;;;;;;4.9;3.2;;;;;;;21.05;100;98211.06;;;;
2021/08/02 10:07:39;;;;;;;4.7;2.5;;;;;;;20.59;100;98223.73;;;;
2021/08/02 10:17:39;;;;;;;6.1;3;;;;;;;20.52;100;98221.73;;;;
2021/08/02 10:27:41;;;;;;;6.3;3.2;;;;;;;20.93;100;98219.61;;;;
2021/08/02 10:37:40;;;;;;;4.9;2.9;;;;;;;21.88;100;98224.61;;;;
2021/08/02 10:47:40;;;;;;;5.9;3.4;;;;;;;22.1;100;98222.7;;;;
2021/08/02 10:57:41;;;;;;;5.1;2.6;;;;;;;22.48;100;98219.14;;;;
2021/08/02 11:07:41;;;;;;;5.1;2.3;;;;;;;22.73;100;98221.08;;;;
2021/08/02 11:17:42;;;;;;;4.3;2.8;;;;;;;23.39;100;98202.75;;;;
2021/08/02 11:27:43;;;;;;;4.5;2.5;;;;;;;23.09;100;98208.77;;;;
2021/08/02 11:37:48;;;;;;;5.1;2.4;;;;;;;22.65;100;98230.48;;;;
2021/08/02 11:47:44;;;;;;;6.1;2.7;;;;;;;22.72;100;98225.79;;;;
2021/08/02 11:57:45;;;;;;;3.1;1.7;;;;;;;22.95;100;98228.06;;;;
2021/08/02 12:07:45;;;;;;;6.3;3;;;;;;;22.49;100;98242.66;;;;
2021/08/02 12:17:47;;;;;;;3.7;2.1;;;;;;;21.95;100;98252.09;;;;
2021/08/02 12:27:46;;;;;;;5.5;2.2;;;;;;;21.89;100;98242.66;;;;
2021/08/02 12:37:47;;;;;;;3.6;2.2;;;;;;;22.16;100;98243.08;;;;
2021/08/02 12:47:48;;;;;;;6;2;;;;;;;22.42;100;98250.14;;;;
2021/08/02 12:57:48;;;;;;;5.6;2.7;;;;;;;23.01;100;98237.49;;;;
2021/08/02 13:07:49;;;;;;;5.6;2.7;;;;;;;23.36;100;98226.31;;;;
2021/08/02 13:17:50;;;;;;;3;2.1;;;;;;;23.53;100;98227.46;;;;
2021/08/02 13:27:50;;;;;;;5.4;2.5;;;;;;;23.26;100;98220.87;;;;
2021/08/02 13:37:51;;;;;;;5.4;2.8;;;;;;;23.56;100;98218.41;;;;
2021/08/02 13:47:51;;;;;;;2.9;1.5;;;;;;;23.77;100;98211.98;;;;
2021/08/02 13:57:52;;;;;;;3;1.7;;;;;;;23.99;100;98219.66;;;;
2021/08/02 14:07:53;;;;;;;4.2;1.8;;;;;;;24;100;98221.23;;;;
2021/08/02 14:17:53;;;;;;;4.1;2.1;;;;;;;24.56;100;98216.45;;;;
2021/08/02 14:27:54;;;;;;;3.4;1.9;;;;;;;24.63;100;98213.62;;;;
2021/08/02 14:37:55;;;;;;;3.3;1.7;;;;;;;24.72;92.01855;98216.66;;;;
2021/08/02 14:47:56;;;;;;;3.7;2.2;;;;;;;23.78;100;98228.07;;;;
2021/08/02 14:57:57;;;;;;;3;1.4;;;;;;;22.84;100;98241.84;;;;
2021/08/02 15:07:57;;;;;;;6.1;2.8;;;;;;;23.17;100;98248.02;;;;
2021/08/02 15:17:58;;;;;;;3.8;1.9;;;;;;;24.22;97.02246;98257.69;;;;
2021/08/02 15:27:58;;;;;;;4.9;2;;;;;;;25.37;97.55762;98254.14;;;;
2021/08/02 15:37:59;;;;;;;2.7;1.8;;;;;;;25.1;92.26953;98233.2;;;;
2021/08/02 15:48:00;;;;;;;5;2.7;;;;;;;23.34;97.13379;98220.45;;;;
2021/08/02 15:58:01;;;;;;;4.1;2.6;;;;;;;22.51;100;98245.02;;;;
2021/08/02 16:08:02;;;;;;;6.8;2.3;;;;;;;21.86;100;98276.36;;;;
2021/08/02 16:18:03;;;;;;;4.5;1.9;;;;;;;20.51;100;98323.44;;;;
2021/08/02 16:28:03;;;;;;;4.5;1.2;;;;;;;18.34;100;98327.28;;;;
2021/08/02 16:38:03;;;;;;;5.1;2.8;;;;;;;17.7;100;98349.86;;;;
2021/08/02 16:48:03;;;;;;;2.9;1.9;;;;;;;17.23;100;98355.49;;;;
2021/08/02 16:58:03;;;;;;;2.8;1.4;;;;;;;16.45;100;98350.16;;;;
2021/08/02 17:08:03;;;;;;;4.6;1.3;;;;;;;16.39;100;98322.42;;;;
2021/08/02 17:18:03;;;;;;;3.6;1.1;;;;;;;17.43;100;98337.22;;;;
2021/08/02 17:28:03;;;;;;;3.1;1.7;;;;;;;17.29;100;98350.55;;;;
2021/08/02 17:38:03;;;;;;;2.8;1.6;;;;;;;16.77;100;98338.13;;;;
2021/08/02 17:48:03;;;;;;;3.8;1.1;;;;;;;16.57;100;98355.53;;;;
2021/08/02 17:58:03;;;;;;;2.8;1.5;;;;;;;16.21;100;98361.97;;;;
2021/08/02 18:08:02;;;;;;;4.2;2.7;;;;;;;15.73;100;98368.46;;;;
2021/08/02 18:18:02;;;;;;;10.8;1.8;;;;;;;15.37;100;98393.02;;;;
2021/08/02 18:28:01;;;;;;;3.5;1.4;;;;;;;14.92;100;98387.77;;;;
2021/08/02 18:38:01;;;;;;;2.6;1;;;;;;;14.74;100;98392.63;;;;
2021/08/02 18:48:01;;;;;;;2.8;1.3;;;;;;;14.58;100;98399.84;;;;
2021/08/02 18:58:00;;;;;;;6;1.6;;;;;;;14.32;100;98410.17;;;;
2021/08/02 19:08:00;;;;;;;3.2;1.4;;;;;;;14.28;100;98420.1;;;;
2021/08/02 19:17:59;;;;;;;3.1;1.4;;;;;;;14.22;100;98424.16;;;;
2021/08/02 19:27:59;;;;;;;2.4;1.4;;;;;;;13.98;100;98419.46;;;;
2021/08/02 19:37:58;;;;;;;3.4;1.8;;;;;;;13.89;100;98416.82;;;;
2021/08/02 19:47:58;;;;;;;3.6;1.6;;;;;;;13.83;100;98412.73;;;;
2021/08/02 19:57:57;;;;;;;3.4;1.8;;;;;;;13.8;100;98418.83;;;;
2021/08/02 20:07:56;;;;;;;4.3;2.2;;;;;;;13.7;100;98427.36;;;;
2021/08/02 20:17:56;;;;;;;4.5;2.5;;;;;;;13.68;100;98432.3;;;;
2021/08/02 20:27:55;;;;;;;3.4;1.8;;;;;;;13.56;100;98437.66;;;;
2021/08/02 20:37:55;;;;;;;3.7;1.6;;;;;;;13.47;100;98436.91;;;;
2021/08/02 20:47:54;;;;;;;3.8;2.6;;;;;;;13.4;100;98444.77;;;;
2021/08/02 20:57:53;;;;;;;4.8;2.4;;;;;;;13.25;100;98450.78;;;;
2021/08/02 21:07:53;;;;;;;5.9;2.9;;;;;;;13.11;100;98448.31;;;;
2021/08/02 21:17:52;;;;;;;6.2;3;;;;;;;12.98;100;98455.48;;;;
2021/08/02 21:27:51;;;;;;;3.9;2;;;;;;;12.84;100;98457.63;;;;
2021/08/02 21:37:50;;;;;;;5.2;3.3;;;;;;;12.69;100;98469;;;;
2021/08/02 21:47:50;;;;;;;5;2.5;;;;;;;12.54;100;98467.61;;;;
2021/08/02 21:57:49;;;;;;;5.8;3.9;;;;;;;12.46;100;98478.46;;;;
2021/08/02 22:07:48;;;;;;;5.1;3.3;;;;;;;12.47;100;98474.63;;;;
2021/08/02 22:17:47;;;;;;;6.4;2.8;;;;;;;12.55;100;98482.72;;;;
2021/08/02 22:27:47;;;;;;;4.3;3;;;;;;;12.6;100;98481.73;;;;
2021/08/02 22:37:46;;;;;;;5.5;2.8;;;;;;;12.56;100;98480.81;;;;
2021/08/02 22:47:45;;;;;;;6.3;2.9;;;;;;;12.44;100;98486.08;;;;
2021/08/02 22:57:44;;;;;;;4;2;;;;;;;12.32;100;98491.37;;;;
2021/08/02 23:07:44;;;;;;;8.3;4;;;;;;;12.3;100;98491.67;;;;
2021/08/02 23:17:42;;;;;;;6;3.9;;;;;;;12.25;100;98483.72;;;;
2021/08/02 23:27:42;;;;;;;4.9;2.7;;;;;;;12.08;100;98484.55;;;;
2021/08/02 23:37:41;;;;;;;3.8;2.1;;;;;;;11.8;100;98493.31;;;;
2021/08/02 23:47:40;;;;;;;4.7;2.3;;;;;;;11.69;100;98495.5;;;;
2021/08/02 23:57:40;;;;;;;5.2;2.4;;;;;;;11.59;100;98506.61;;;;
